LiveATC.Net - Listen to live air traffic control over the Internet!


ICAO: VNKT  IATA: KTM   Airport: Tribhuvan International Airport
City: Kathmandu
Country: Nepal   Continent: Asia
VNKT METAR Weather: VNKT 221950Z 00000KT 6000 FEW008 SCT030 BKN100 21/21 Q1014 NOSIG
VNKT Flight Activity (FlightAware)
VNKT Twr/App/Control
Feed Status: DOWN
Last heard on: 2017-08-22 18:27:02 (0 days 2 hours 20 minutes ago)
VNKT Twr/App/Control Audio Archives
FacilityFrequency
Kathmandu Approach120.600
Kathmandu Control126.500
Kathmandu Tower118.100
Kathmandu Tower (backup)118.500

NOTE: This feed will only be up for a few hours each day

NOTICE

Unauthorized use prohibited. See LiveATC.net Terms of Service


Find LiveATC Audio Streams


Airport/ARTCC Code

Frequency Search
(e.g., 124.400, 128.75)
Site-wide search
 


Browse LiveATC Feeds
LiveATC Coverage Map
Top 50 LiveATC Feeds
Bad Weather Areas

LiveATC FAQ
Offer a LiveATC Feed
Contact LiveATC.net
Press Inquiries

LiveATC on iPhone
LiveATC on Android

Windows Phone
Windows 8/10

LiveATC Mobile
(Mobile browser)

ATC Audio Archives
Interesting Recordings

LiveATC Forums


Home Page
About LiveATC.net
Make a Donation
LiveATC Store

Terms of Use
Privacy Policy

Canadian Air Freqs

AIRMETs/SIGMETs

FAA Airport Status
Nat'l Airspace Status
Arrival Demand Charts


Server Software By:
Icecast.org
Liquidsoap